Time;durP1;ratioP1;P1;durP2;ratioP2;P2;SDS_P1;SDS_P2;PMS_P1;PMS_P2;Temp;Humidity;BMP_temperature;BMP_pressure;BME280_temperature;BME280_humidity;BME280_pressure;Samples;Min_cycle;Max_cycle;Signal;HPM_P1;HPM_P2
2023/09/14 00:02:06;;;;;;;5.43;2.03;;;;;;;14.99;100.00;102800.06;4922583;29;20560;-70
2023/09/14 00:04:31;;;;;;;4.37;1.57;;;;;;;14.80;100.00;102761.69;4909665;29;20460;-70
2023/09/14 00:06:57;;;;;;;4.30;1.50;;;;;;;15.03;100.00;102798.69;4910885;29;20210;-68
2023/09/14 00:09:22;;;;;;;4.50;1.80;;;;;;;14.64;100.00;102759.13;4910878;29;20184;-68
2023/09/14 00:11:47;;;;;;;4.93;1.80;;;;;;;14.78;100.00;102746.69;4909115;29;20184;-68
2023/09/14 00:14:13;;;;;;;5.47;1.90;;;;;;;14.54;100.00;102750.41;4910732;29;20279;-68
2023/09/14 00:16:38;;;;;;;4.57;1.77;;;;;;;14.70;100.00;102777.31;4911039;29;20559;-68
2023/09/14 00:19:04;;;;;;;5.00;1.90;;;;;;;14.69;100.00;102714.34;4911098;29;20656;-68
2023/09/14 00:21:30;;;;;;;4.70;1.63;;;;;;;14.57;100.00;102615.00;4926103;29;20200;-70
2023/09/14 00:23:56;;;;;;;3.50;1.57;;;;;;;14.52;100.00;102609.31;4913996;29;20216;-69
2023/09/14 00:26:21;;;;;;;5.37;1.73;;;;;;;14.70;100.00;102728.69;4927089;29;20475;-69
2023/09/14 00:28:47;;;;;;;6.93;1.60;;;;;;;14.72;100.00;102710.41;4913536;29;20248;-67
2023/09/14 00:31:12;;;;;;;6.33;1.80;;;;;;;14.80;100.00;102696.84;4913670;29;20643;-69
2023/09/14 00:33:37;;;;;;;5.53;1.63;;;;;;;14.95;100.00;102705.00;4914089;29;20220;-70
2023/09/14 00:36:04;;;;;;;3.30;1.40;;;;;;;14.38;100.00;102627.97;4927715;29;20547;-70
2023/09/14 00:38:29;;;;;;;4.10;1.50;;;;;;;14.44;100.00;102591.31;4914512;29;20201;-69
2023/09/14 00:40:55;;;;;;;3.40;1.47;;;;;;;14.70;100.00;102634.16;4912139;29;21375;-70
2023/09/14 00:43:20;;;;;;;3.80;1.60;;;;;;;15.03;100.00;102691.41;4914623;29;20745;-68
2023/09/14 00:45:46;;;;;;;5.23;1.77;;;;;;;14.44;100.00;102602.94;4927745;29;20699;-69
2023/09/14 00:48:12;;;;;;;6.73;1.50;;;;;;;15.22;100.00;102659.50;4914314;29;20197;-69
2023/09/14 00:50:38;;;;;;;4.03;1.67;;;;;;;14.69;100.00;102605.44;4913531;29;20686;-70
2023/09/14 00:53:08;;;;;;;4.93;1.50;;;;;;;14.68;100.00;102526.28;4927540;29;20211;-70
2023/09/14 00:55:34;;;;;;;3.47;1.40;;;;;;;14.52;100.00;102526.44;4914214;29;21307;-70
2023/09/14 00:58:00;;;;;;;2.97;1.27;;;;;;;15.21;100.00;102655.94;4914641;29;20447;-70
2023/09/14 01:00:26;;;;;;;3.50;1.20;;;;;;;15.33;100.00;102665.28;4914707;29;20196;-70
2023/09/14 01:02:58;;;;;;;5.27;1.80;;;;;;;15.38;100.00;102687.16;4912571;29;20216;-68
2023/09/14 01:05:27;;;;;;;5.23;1.87;;;;;;;14.76;100.00;102624.47;4927254;29;20475;-68
2023/09/14 01:07:53;;;;;;;5.20;2.07;;;;;;;14.77;100.00;102591.03;4924439;29;20994;-69
2023/09/14 01:10:19;;;;;;;5.30;1.50;;;;;;;15.11;100.00;102644.56;4927873;29;20428;-70
2023/09/14 01:12:47;;;;;;;8.00;1.70;;;;;;;14.46;100.00;102492.06;4925145;29;20579;-69
2023/09/14 01:15:19;;;;;;;4.77;1.33;;;;;;;14.52;100.00;102512.13;4912428;29;20554;-70
2023/09/14 01:18:05;;;;;;;5.27;1.37;;;;;;;14.47;100.00;102535.09;4928531;29;20425;-70
2023/09/14 01:20:55;;;;;;;2.90;1.07;;;;;;;15.46;100.00;102628.63;4925278;29;20444;-70
2023/09/14 01:23:42;;;;;;;4.30;1.10;;;;;;;15.52;100.00;102612.47;4912763;29;20451;-70
2023/09/14 01:26:09;;;;;;;5.20;1.70;;;;;;;15.30;100.00;102617.00;4912537;29;20979;-70
2023/09/14 01:28:35;;;;;;;5.17;1.70;;;;;;;15.21;100.00;102636.16;4926955;29;20448;-70
2023/09/14 01:31:00;;;;;;;4.53;1.33;;;;;;;14.93;100.00;102590.88;4911868;29;20458;-70
2023/09/14 01:33:29;;;;;;;2.50;1.00;;;;;;;14.46;100.00;102548.75;4925854;29;20212;-70
2023/09/14 01:36:19;;;;;;;3.30;1.30;;;;;;;15.05;100.00;102692.09;4924117;29;20195;-68
2023/09/14 01:38:45;;;;;;;4.20;1.33;;;;;;;15.17;100.00;102684.38;4913496;29;20451;-69
2023/09/14 01:41:12;;;;;;;2.80;1.20;;;;;;;14.81;100.00;102644.53;4913657;29;20429;-70
2023/09/14 01:43:39;;;;;;;3.40;1.00;;;;;;;14.88;100.00;102710.31;4913504;29;20448;-70
2023/09/14 01:46:06;;;;;;;3.60;1.27;;;;;;;14.47;100.00;102610.69;4913083;29;20480;-70
2023/09/14 01:48:31;;;;;;;5.50;1.27;;;;;;;14.73;100.00;102693.22;4913196;29;20464;-69
2023/09/14 01:50:57;;;;;;;5.33;1.20;;;;;;;14.99;100.00;102719.84;4926427;29;20463;-70
2023/09/14 01:53:22;;;;;;;3.50;1.03;;;;;;;14.59;100.00;102630.03;4912498;29;20318;-70
2023/09/14 01:55:48;;;;;;;3.43;1.10;;;;;;;14.45;100.00;102612.72;4912755;29;20188;-68
2023/09/14 01:58:13;;;;;;;3.27;1.33;;;;;;;15.19;100.00;102703.94;4913037;29;20200;-69
2023/09/14 02:00:38;;;;;;;3.27;1.20;;;;;;;15.09;100.00;102712.31;4912855;29;20244;-69
2023/09/14 02:03:04;;;;;;;4.77;1.33;;;;;;;14.50;100.00;102638.34;4913226;29;20213;-69
2023/09/14 02:05:30;;;;;;;4.57;1.20;;;;;;;15.23;100.00;102726.88;4912949;29;20220;-70
2023/09/14 02:07:55;;;;;;;5.00;1.37;;;;;;;14.75;100.00;102655.19;4922815;29;20207;-70
2023/09/14 02:10:22;;;;;;;4.93;1.87;;;;;;;14.79;100.00;102670.03;4912667;29;20192;-69
2023/09/14 02:12:49;;;;;;;4.20;1.20;;;;;;;14.98;100.00;102680.31;4925374;29;20205;-69
2023/09/14 02:15:15;;;;;;;3.40;1.20;;;;;;;15.17;100.00;102683.53;4911842;29;20440;-69
2023/09/14 02:17:40;;;;;;;4.30;1.33;;;;;;;14.60;100.00;102595.75;4912398;29;20429;-70
2023/09/14 02:20:08;;;;;;;2.93;1.03;;;;;;;14.98;100.00;102669.50;4912322;29;20435;-70
2023/09/14 02:22:33;;;;;;;2.80;1.27;;;;;;;14.66;100.00;102617.44;4901206;29;20208;-70
2023/09/14 02:24:59;;;;;;;3.60;1.33;;;;;;;15.37;100.00;102690.91;4911119;29;20448;-70
2023/09/14 02:27:24;;;;;;;3.97;1.30;;;;;;;14.48;100.00;102598.84;4926036;29;20379;-68
2023/09/14 02:29:54;;;;;;;4.37;1.50;;;;;;;14.38;100.00;102600.13;4912189;29;20195;-68
2023/09/14 02:32:19;;;;;;;3.73;1.10;;;;;;;15.33;100.00;102718.50;4912379;29;20690;-69
2023/09/14 02:34:45;;;;;;;3.20;1.00;;;;;;;15.18;100.00;102714.94;4911438;29;21091;-70
2023/09/14 02:37:10;;;;;;;4.20;1.40;;;;;;;14.54;100.00;102615.38;4911821;29;20200;-70
2023/09/14 02:39:36;;;;;;;3.60;1.20;;;;;;;14.31;100.00;102578.41;4912427;29;20196;-70
2023/09/14 02:42:01;;;;;;;3.77;1.40;;;;;;;15.01;100.00;102685.34;4912079;29;20212;-70
2023/09/14 02:44:27;;;;;;;2.43;1.07;;;;;;;14.42;100.00;102594.19;4911419;29;20181;-70
2023/09/14 02:46:52;;;;;;;4.33;1.37;;;;;;;14.99;100.00;102711.72;4922023;29;20220;-69
2023/09/14 02:49:18;;;;;;;5.20;1.03;;;;;;;14.25;100.00;102603.44;4911050;29;20236;-70
2023/09/14 02:51:43;;;;;;;4.53;1.17;;;;;;;14.88;100.00;102690.56;4910407;29;20636;-70
2023/09/14 02:54:08;;;;;;;5.10;1.60;;;;;;;14.96;100.00;102713.97;4912247;29;20204;-69
2023/09/14 02:56:34;;;;;;;5.13;1.47;;;;;;;14.89;100.00;102738.16;4912352;29;20268;-70
2023/09/14 02:58:59;;;;;;;3.33;1.30;;;;;;;14.57;100.00;102701.44;4911806;29;20199;-69
2023/09/14 03:01:25;;;;;;;4.40;1.47;;;;;;;14.07;100.00;102614.53;4925881;29;20594;-70
2023/09/14 03:03:50;;;;;;;3.60;0.97;;;;;;;14.59;100.00;102721.00;4911261;29;20277;-69
2023/09/14 03:06:16;;;;;;;4.90;1.03;;;;;;;14.65;100.00;102733.78;4910303;29;20963;-69
2023/09/14 03:08:41;;;;;;;3.67;1.10;;;;;;;14.64;100.00;102738.34;4911805;29;20188;-69
2023/09/14 03:11:07;;;;;;;3.40;1.20;;;;;;;14.43;100.00;102711.09;4912016;29;20239;-70
2023/09/14 03:13:32;;;;;;;4.27;1.30;;;;;;;14.56;100.00;102718.66;4911142;29;20582;-70
2023/09/14 03:15:59;;;;;;;4.60;1.23;;;;;;;14.62;100.00;102748.47;4910315;29;20190;-70
2023/09/14 03:18:25;;;;;;;3.10;0.90;;;;;;;13.91;100.00;102603.81;4910048;29;20968;-70
2023/09/14 03:20:52;;;;;;;2.70;1.03;;;;;;;14.57;100.00;102739.22;4909406;29;20457;-69
2023/09/14 03:23:17;;;;;;;4.67;1.20;;;;;;;14.50;100.00;102706.69;4909162;29;20267;-70
2023/09/14 03:25:43;;;;;;;3.50;1.40;;;;;;;14.66;100.00;102716.53;4923497;29;20920;-70
2023/09/14 03:28:09;;;;;;;3.50;1.43;;;;;;;14.64;100.00;102697.84;4924908;29;20653;-70
2023/09/14 03:30:35;;;;;;;3.50;1.00;;;;;;;14.90;100.00;102662.34;4911866;29;20930;-70
2023/09/14 03:33:01;;;;;;;2.80;1.00;;;;;;;14.97;100.00;102591.34;4909677;29;20248;-69
2023/09/14 03:35:26;;;;;;;4.30;1.30;;;;;;;14.46;100.00;102440.75;4909918;29;20550;-70
2023/09/14 03:37:52;;;;;;;3.80;1.13;;;;;;;14.45;100.00;102445.31;4924345;29;20196;-70
2023/09/14 03:40:17;;;;;;;3.70;1.20;;;;;;;14.84;100.00;102521.72;4910665;29;20192;-70
2023/09/14 03:42:43;;;;;;;3.40;1.07;;;;;;;14.20;100.00;102385.38;4911588;29;20212;-70
2023/09/14 03:45:09;;;;;;;3.90;1.10;;;;;;;15.12;100.00;102541.66;4911367;29;20220;-70
2023/09/14 03:47:34;;;;;;;4.40;1.10;;;;;;;14.55;100.00;102504.50;4926209;29;20194;-69
2023/09/14 03:50:00;;;;;;;2.77;1.07;;;;;;;14.04;100.00;102498.03;4922994;29;20193;-70
2023/09/14 03:52:25;;;;;;;3.67;0.80;;;;;;;14.72;100.00;102609.66;4910281;29;20205;-70
2023/09/14 03:54:50;;;;;;;5.87;1.10;;;;;;;14.72;100.00;102612.34;4910194;29;20185;-70
2023/09/14 03:57:16;;;;;;;3.17;0.90;;;;;;;14.51;100.00;102586.84;4910538;29;20759;-70
2023/09/14 03:59:42;;;;;;;5.60;0.90;;;;;;;13.99;100.00;102547.13;4910770;29;20184;-70
2023/09/14 04:02:09;;;;;;;5.63;1.13;;;;;;;13.96;100.00;102490.81;4909905;29;20188;-70
2023/09/14 04:04:34;;;;;;;2.60;0.90;;;;;;;14.19;100.00;102459.25;4911024;29;20437;-70
2023/09/14 04:07:00;;;;;;;3.63;1.00;;;;;;;14.55;100.00;102496.41;4909914;29;20542;-70
2023/09/14 04:09:29;;;;;;;3.23;1.13;;;;;;;14.39;100.00;102512.72;4911575;29;20184;-69
2023/09/14 04:11:55;;;;;;;5.33;1.20;;;;;;;14.62;100.00;102486.53;4910222;29;20211;-69
2023/09/14 04:14:21;;;;;;;3.83;1.10;;;;;;;14.30;100.00;102443.66;4922944;29;20479;-69
2023/09/14 04:16:47;;;;;;;3.90;1.17;;;;;;;14.57;100.00;102480.84;4910361;29;20424;-69
2023/09/14 04:19:13;;;;;;;4.23;1.10;;;;;;;14.11;100.00;102428.81;4924705;29;20208;-70
2023/09/14 04:21:41;;;;;;;3.80;0.70;;;;;;;14.29;100.00;102514.81;4910615;29;20535;-69
2023/09/14 04:24:07;;;;;;;3.47;0.80;;;;;;;14.50;100.00;102578.94;4910566;29;20636;-70
2023/09/14 04:26:33;;;;;;;2.23;0.80;;;;;;;14.40;100.00;102538.69;4908573;29;20497;-70
2023/09/14 04:28:58;;;;;;;2.13;0.80;;;;;;;14.46;100.00;102564.94;4909962;29;20199;-69
2023/09/14 04:31:25;;;;;;;3.60;0.90;;;;;;;13.86;100.00;102474.06;4907606;29;21133;-70
2023/09/14 04:33:50;;;;;;;3.97;0.90;;;;;;;14.54;100.00;102573.00;4925115;29;20225;-70
2023/09/14 04:36:16;;;;;;;3.33;1.10;;;;;;;13.83;100.00;102488.75;4910472;29;20459;-69
2023/09/14 04:38:41;;;;;;;4.50;1.00;;;;;;;13.93;100.00;102519.00;4910104;29;20193;-70
2023/09/14 04:41:07;;;;;;;3.63;1.20;;;;;;;14.29;100.00;102580.47;4899084;29;20192;-69
2023/09/14 04:43:32;;;;;;;2.50;0.87;;;;;;;14.25;100.00;102598.84;4909830;29;20268;-69
2023/09/14 04:46:04;;;;;;;4.43;1.10;;;;;;;13.18;100.00;102427.13;4920838;29;20220;-70
2023/09/14 04:48:29;;;;;;;5.10;1.20;;;;;;;14.27;100.00;102639.19;4924316;29;20196;-70
2023/09/14 04:50:56;;;;;;;2.97;0.80;;;;;;;13.90;100.00;102548.19;4918223;29;20471;-70
2023/09/14 04:53:26;;;;;;;4.50;1.00;;;;;;;13.54;100.00;102527.19;4920742;29;20727;-70
2023/09/14 04:55:52;;;;;;;2.50;0.87;;;;;;;13.61;100.00;102565.91;4921462;29;20456;-70
2023/09/14 04:58:17;;;;;;;4.90;1.00;;;;;;;13.84;100.00;102579.41;4909415;29;20854;-70
2023/09/14 05:00:46;;;;;;;3.80;1.07;;;;;;;14.09;100.00;102615.19;4910081;29;20439;-69
2023/09/14 05:03:12;;;;;;;2.47;1.00;;;;;;;14.25;100.00;102633.13;4923853;29;20207;-70
2023/09/14 05:05:37;;;;;;;2.63;0.90;;;;;;;13.93;100.00;102621.50;4910220;29;20476;-70
2023/09/14 05:08:03;;;;;;;2.17;0.87;;;;;;;14.07;100.00;102641.50;4912996;29;20204;-70
2023/09/14 05:10:28;;;;;;;3.53;1.10;;;;;;;13.64;100.00;102600.59;4912758;29;20188;-70
2023/09/14 05:12:54;;;;;;;2.27;0.90;;;;;;;14.01;100.00;102669.19;4912731;29;20358;-70
2023/09/14 05:15:19;;;;;;;3.10;0.90;;;;;;;13.87;100.00;102632.19;4926396;29;20180;-70
2023/09/14 05:17:45;;;;;;;2.90;1.00;;;;;;;13.26;100.00;102543.84;4912520;29;20272;-70
2023/09/14 05:20:11;;;;;;;3.23;0.90;;;;;;;13.74;100.00;102671.34;4911688;29;20192;-70
2023/09/14 05:22:38;;;;;;;4.30;0.93;;;;;;;13.52;100.00;102619.03;4912486;29;20216;-70
2023/09/14 05:25:04;;;;;;;3.80;1.00;;;;;;;13.73;100.00;102664.25;4926364;29;20448;-69
2023/09/14 05:27:40;;;;;;;7.63;1.20;;;;;;;13.36;100.00;102569.72;4914439;29;20444;-69
2023/09/14 05:30:06;;;;;;;3.10;0.93;;;;;;;13.53;100.00;102636.03;4926071;29;20444;-69
2023/09/14 05:32:32;;;;;;;3.53;0.90;;;;;;;13.88;100.00;102663.53;4913273;29;20457;-70
2023/09/14 05:34:58;;;;;;;3.13;1.00;;;;;;;13.22;100.00;102582.91;4911090;29;20503;-70
2023/09/14 05:37:23;;;;;;;3.10;0.77;;;;;;;13.65;100.00;102642.72;4924239;29;20192;-69
2023/09/14 05:39:49;;;;;;;2.97;0.93;;;;;;;13.56;100.00;102649.16;4926953;29;20432;-69
2023/09/14 05:42:14;;;;;;;3.00;1.00;;;;;;;13.24;100.00;102578.16;4911617;29;20257;-69
2023/09/14 05:44:39;;;;;;;3.20;1.03;;;;;;;13.63;100.00;102662.81;4913731;29;20229;-69
2023/09/14 05:47:05;;;;;;;2.37;0.90;;;;;;;13.84;100.00;102692.72;4911049;29;20240;-69
2023/09/14 05:49:31;;;;;;;6.90;1.40;;;;;;;13.71;100.00;102687.00;4911731;29;20184;-69
2023/09/14 05:51:57;;;;;;;4.73;1.40;;;;;;;13.22;100.00;102580.22;4927813;29;20227;-69
2023/09/14 05:54:22;;;;;;;2.40;0.87;;;;;;;13.94;100.00;102711.38;4912344;29;20213;-69
2023/09/14 05:56:48;;;;;;;2.53;0.93;;;;;;;13.04;100.00;102598.44;4911027;29;21296;-69
2023/09/14 05:59:15;;;;;;;2.90;1.13;;;;;;;12.96;100.00;102587.66;4913283;29;20600;-69
2023/09/14 06:01:41;;;;;;;3.27;0.90;;;;;;;13.81;100.00;102703.00;4920012;29;20560;-69
2023/09/14 06:04:06;;;;;;;5.90;1.27;;;;;;;13.82;100.00;102712.78;4910471;29;20472;-69
2023/09/14 06:06:32;;;;;;;3.50;1.20;;;;;;;14.27;100.00;102709.34;4909525;29;20224;-69
2023/09/14 06:08:57;;;;;;;3.03;1.23;;;;;;;13.98;100.00;102674.94;4911754;29;20200;-69
2023/09/14 06:11:23;;;;;;;2.30;0.80;;;;;;;13.65;100.00;102650.81;4905829;29;20199;-69
2023/09/14 06:13:48;;;;;;;4.27;1.30;;;;;;;14.08;100.00;102725.97;4909804;29;20224;-69
2023/09/14 06:16:14;;;;;;;4.63;1.40;;;;;;;13.17;100.00;102620.28;4908418;29;20193;-69
2023/09/14 06:18:39;;;;;;;3.50;1.53;;;;;;;13.24;100.00;102621.28;4924135;29;20276;-69
2023/09/14 06:21:05;;;;;;;4.23;1.50;;;;;;;13.79;100.00;102706.72;4912121;29;20953;-69
2023/09/14 06:23:30;;;;;;;4.43;1.60;;;;;;;13.93;100.00;102707.00;4911407;29;20294;-70
2023/09/14 06:25:56;;;;;;;6.40;1.73;;;;;;;14.10;100.00;102767.97;4912430;29;20231;-70
2023/09/14 06:28:21;;;;;;;6.90;1.87;;;;;;;14.27;100.00;102781.41;4913279;29;20240;-70
2023/09/14 06:30:46;;;;;;;6.20;2.07;;;;;;;13.46;100.00;102694.38;4911913;29;20196;-70
2023/09/14 06:33:12;;;;;;;4.20;1.60;;;;;;;14.41;100.00;102815.75;4923612;29;20224;-70
2023/09/14 06:35:37;;;;;;;3.13;1.33;;;;;;;14.12;100.00;102722.78;4912602;29;20188;-70
2023/09/14 06:38:04;;;;;;;4.83;1.80;;;;;;;14.52;100.00;102809.13;4910430;29;20188;-70
2023/09/14 06:40:30;;;;;;;4.03;1.70;;;;;;;13.86;100.00;102723.06;4910319;29;20185;-69
2023/09/14 06:42:56;;;;;;;4.87;1.90;;;;;;;13.67;100.00;102713.50;4911812;29;20452;-70
2023/09/14 06:45:21;;;;;;;5.70;2.20;;;;;;;14.39;100.00;102801.56;4911980;29;20483;-70
2023/09/14 06:47:46;;;;;;;4.73;1.97;;;;;;;14.80;100.00;102847.31;4911128;29;20188;-70
2023/09/14 06:50:13;;;;;;;5.20;2.03;;;;;;;14.84;100.00;102870.22;4913321;29;20193;-70
2023/09/14 06:52:39;;;;;;;6.57;2.50;;;;;;;14.18;100.00;102808.41;4907811;29;20208;-70
2023/09/14 06:55:06;;;;;;;8.50;3.23;;;;;;;14.36;100.00;102853.22;4912014;29;20435;-70
2023/09/14 06:57:32;;;;;;;6.53;2.83;;;;;;;13.38;100.00;102705.16;4912274;29;20358;-70
2023/09/14 06:59:58;;;;;;;5.27;2.87;;;;;;;14.60;100.00;102909.84;4911687;29;21626;-70
2023/09/14 07:02:23;;;;;;;5.97;2.83;;;;;;;13.95;100.00;102778.66;4925466;29;20180;-70
2023/09/14 07:04:48;;;;;;;9.60;3.27;;;;;;;13.96;100.00;102809.16;4911770;29;20193;-70
2023/09/14 07:07:14;;;;;;;7.00;2.70;;;;;;;14.68;100.00;102917.09;4912252;29;20212;-70
2023/09/14 07:09:39;;;;;;;6.90;3.43;;;;;;;14.68;100.00;102873.88;4912093;29;20189;-70
2023/09/14 07:12:06;;;;;;;7.30;2.93;;;;;;;14.31;100.00;102818.66;4911351;29;20208;-69
2023/09/14 07:14:31;;;;;;;6.83;3.10;;;;;;;14.91;100.00;102901.78;4925863;29;20208;-69
2023/09/14 07:16:57;;;;;;;6.50;3.03;;;;;;;14.48;100.00;102793.25;4924647;29;20431;-70
2023/09/14 07:19:26;;;;;;;7.33;4.20;;;;;;;14.43;100.00;102732.69;4910867;29;20628;-70
2023/09/14 07:21:54;;;;;;;10.90;4.03;;;;;;;14.90;100.00;102813.63;4910739;29;20188;-70
2023/09/14 07:24:21;;;;;;;7.43;3.93;;;;;;;15.14;100.00;102790.16;4921994;29;20978;-70
2023/09/14 07:26:47;;;;;;;6.00;3.00;;;;;;;14.64;100.00;102705.09;4909737;29;20516;-70
2023/09/14 07:29:12;;;;;;;5.87;2.40;;;;;;;15.04;100.00;102700.34;4924084;29;20452;-70
2023/09/14 07:31:39;;;;;;;3.47;1.90;;;;;;;15.50;100.00;102751.63;4911294;29;20517;-70
2023/09/14 07:34:05;;;;;;;5.63;2.20;;;;;;;14.98;100.00;102653.28;4924499;29;20216;-70
2023/09/14 07:36:30;;;;;;;4.90;1.50;;;;;;;15.23;100.00;102664.69;4911699;29;20421;-70
2023/09/14 07:38:56;;;;;;;6.33;2.10;;;;;;;15.29;100.00;102617.16;4910795;29;20219;-70
2023/09/14 07:41:21;;;;;;;4.63;1.80;;;;;;;15.66;100.00;102653.22;4925264;29;20271;-70
2023/09/14 07:43:47;;;;;;;7.20;1.97;;;;;;;15.05;100.00;102515.59;4909203;29;20353;-70
2023/09/14 07:46:12;;;;;;;4.60;1.43;;;;;;;15.24;100.00;102525.78;4911555;29;20247;-70
2023/09/14 07:48:37;;;;;;;8.50;2.43;;;;;;;15.07;100.00;102527.91;4910098;29;20187;-70
2023/09/14 07:51:03;;;;;;;10.30;2.60;;;;;;;15.72;100.00;102660.63;4911024;29;20333;-70
2023/09/14 07:53:28;;;;;;;7.93;1.70;;;;;;;15.26;100.00;102545.38;4909652;29;20204;-70
2023/09/14 07:55:54;;;;;;;5.10;2.00;;;;;;;15.38;100.00;102521.41;4910463;29;20184;-70
2023/09/14 07:58:20;;;;;;;6.43;2.33;;;;;;;15.33;100.00;102526.53;4910679;29;20191;-69
2023/09/14 08:00:46;;;;;;;4.20;1.73;;;;;;;15.38;100.00;102510.59;4922517;29;20727;-70
2023/09/14 08:03:13;;;;;;;6.60;2.10;;;;;;;15.85;100.00;102586.88;4910755;29;20223;-70
2023/09/14 08:05:39;;;;;;;7.27;1.83;;;;;;;15.38;100.00;102481.69;4909591;29;20468;-70
2023/09/14 08:08:04;;;;;;;4.83;2.23;;;;;;;15.90;100.00;102590.69;4909323;29;20432;-70
2023/09/14 08:10:30;;;;;;;5.93;2.90;;;;;;;15.37;100.00;102498.94;4911178;29;20193;-69
2023/09/14 08:12:55;;;;;;;6.80;2.60;;;;;;;15.50;100.00;102503.66;4910692;29;20207;-70
2023/09/14 08:15:21;;;;;;;4.63;2.30;;;;;;;15.99;100.00;102576.00;4911408;29;20671;-70
2023/09/14 08:17:46;;;;;;;6.97;1.87;;;;;;;15.64;100.00;102491.13;4911443;29;20216;-70
2023/09/14 08:20:12;;;;;;;4.17;1.70;;;;;;;15.69;100.00;102458.94;4909812;29;20181;-70
2023/09/14 08:22:37;;;;;;;3.73;1.23;;;;;;;15.62;100.00;102430.13;4910413;29;20252;-70
2023/09/14 08:25:03;;;;;;;4.47;1.30;;;;;;;15.58;100.00;102418.84;4909770;29;20189;-70
2023/09/14 08:27:28;;;;;;;4.43;1.17;;;;;;;16.18;100.00;102481.66;4926013;29;20282;-70
2023/09/14 08:29:54;;;;;;;3.20;1.10;;;;;;;15.43;100.00;102391.06;4910046;29;21209;-69
2023/09/14 08:32:21;;;;;;;2.47;1.00;;;;;;;15.55;100.00;102384.91;4924320;29;20236;-70
2023/09/14 08:34:46;;;;;;;4.47;0.80;;;;;;;15.57;100.00;102353.13;4924179;29;20668;-70
2023/09/14 08:37:12;;;;;;;5.80;1.40;;;;;;;16.21;100.00;102440.66;4910593;29;20438;-70
2023/09/14 08:39:38;;;;;;;6.87;1.17;;;;;;;15.84;100.00;102372.28;4910327;29;20748;-70
2023/09/14 08:42:04;;;;;;;2.90;0.90;;;;;;;16.53;100.00;102460.03;4921538;29;21059;-70
2023/09/14 08:44:36;;;;;;;3.13;0.93;;;;;;;16.69;100.00;102470.53;4924496;29;20993;-70
2023/09/14 08:47:02;;;;;;;8.70;1.10;;;;;;;16.42;100.00;102448.69;4911409;29;20896;-70
2023/09/14 08:49:30;;;;;;;2.70;1.00;;;;;;;16.25;100.00;102437.34;4914320;29;20436;-70
2023/09/14 08:51:58;;;;;;;4.33;1.23;;;;;;;16.80;100.00;102471.88;4927386;29;20785;-70
2023/09/14 08:54:24;;;;;;;3.07;0.90;;;;;;;16.35;100.00;102409.94;4912692;29;20584;-70
2023/09/14 08:56:51;;;;;;;2.27;0.87;;;;;;;16.03;100.00;102349.97;4914676;29;20510;-70
2023/09/14 08:59:19;;;;;;;5.70;1.33;;;;;;;15.97;100.00;102344.50;4926526;29;20271;-69
2023/09/14 09:01:47;;;;;;;2.83;0.90;;;;;;;16.82;100.00;102450.84;4926414;29;21405;-69
2023/09/14 09:04:12;;;;;;;4.60;0.90;;;;;;;16.26;100.00;102360.50;4927867;29;20483;-70
2023/09/14 09:06:38;;;;;;;3.30;1.00;;;;;;;16.84;100.00;102440.66;4913622;29;20990;-67
2023/09/14 09:09:04;;;;;;;3.07;0.70;;;;;;;16.96;100.00;102444.44;4913049;29;20204;-69
2023/09/14 09:11:30;;;;;;;2.83;0.97;;;;;;;16.86;100.00;102433.13;4913838;29;20487;-70
2023/09/14 09:13:56;;;;;;;2.63;0.80;;;;;;;16.73;100.00;102420.34;4925507;29;20955;-69
2023/09/14 09:16:21;;;;;;;3.80;0.90;;;;;;;16.26;100.00;102381.34;4914824;29;20488;-67
2023/09/14 09:19:02;;;;;;;3.20;1.07;;;;;;;15.93;100.00;102338.63;4912048;29;20200;-69
2023/09/14 09:21:32;;;;;;;3.63;0.80;;;;;;;16.58;100.00;102433.19;4926128;29;20194;-69
2023/09/14 09:24:00;;;;;;;6.23;1.20;;;;;;;16.10;100.00;102352.69;4912584;29;20532;-70
2023/09/14 09:26:32;;;;;;;3.60;1.10;;;;;;;15.96;100.00;102322.00;4927732;29;20467;-70
2023/09/14 09:28:57;;;;;;;4.37;1.03;;;;;;;16.53;100.00;102400.44;4924715;29;20856;-70
2023/09/14 09:31:39;;;;;;;2.97;0.90;;;;;;;16.78;100.00;102426.03;4912926;29;20479;-70
2023/09/14 09:34:08;;;;;;;3.60;1.00;;;;;;;16.57;100.00;102377.31;4912941;29;20225;-69
2023/09/14 09:36:34;;;;;;;4.23;1.70;;;;;;;16.76;100.00;102394.72;4928723;29;20428;-69
2023/09/14 09:39:02;;;;;;;7.40;1.30;;;;;;;16.31;100.00;102340.94;4912242;29;20451;-70
2023/09/14 09:41:31;;;;;;;2.60;0.90;;;;;;;16.36;100.00;102335.78;4913002;29;20251;-70
2023/09/14 09:43:57;;;;;;;3.90;1.43;;;;;;;16.84;100.00;102408.13;4913463;29;20460;-70
2023/09/14 09:46:23;;;;;;;4.00;1.40;;;;;;;16.97;100.00;102388.38;4925144;29;20495;-67
2023/09/14 09:48:49;;;;;;;3.20;1.07;;;;;;;17.21;100.00;102412.19;4925142;29;20236;-69
2023/09/14 09:51:15;;;;;;;4.37;1.03;;;;;;;17.05;100.00;102418.84;4925847;29;20192;-67
2023/09/14 09:54:02;;;;;;;4.03;1.03;;;;;;;16.97;100.00;102408.16;4912069;29;20844;-69
2023/09/14 09:56:28;;;;;;;2.97;1.00;;;;;;;16.51;100.00;102313.97;4928185;29;20189;-70
2023/09/14 09:58:53;;;;;;;3.23;0.90;;;;;;;16.52;100.00;102303.94;4911783;29;21162;-70
2023/09/14 10:01:22;;;;;;;3.40;1.20;;;;;;;16.85;100.00;102315.78;4911700;29;20199;-70
2023/09/14 10:03:48;;;;;;;3.70;1.20;;;;;;;16.81;100.00;102303.69;4924112;29;20214;-67
2023/09/14 10:06:13;;;;;;;4.40;1.00;;;;;;;17.53;100.00;102404.31;4926287;29;20484;-69
2023/09/14 10:08:39;;;;;;;4.00;1.10;;;;;;;17.67;100.00;102397.88;4927251;29;20184;-67
2023/09/14 10:11:05;;;;;;;3.20;1.20;;;;;;;16.96;100.00;102327.06;4912884;29;20579;-67
2023/09/14 10:13:30;;;;;;;3.60;1.20;;;;;;;17.42;100.00;102416.63;4924990;29;20221;-69
2023/09/14 10:15:56;;;;;;;3.33;1.00;;;;;;;17.30;100.00;102373.03;4924557;29;20425;-70
2023/09/14 10:18:24;;;;;;;5.50;1.23;;;;;;;17.22;100.00;102415.75;4924109;29;20235;-70
2023/09/14 10:20:53;;;;;;;2.60;1.00;;;;;;;17.29;100.00;102370.50;4912051;29;20439;-67
2023/09/14 10:23:21;;;;;;;2.43;0.80;;;;;;;17.58;100.00;102396.41;4926301;29;20482;-69
2023/09/14 10:25:49;;;;;;;3.20;0.97;;;;;;;17.63;100.00;102412.91;4920630;29;20528;-70
2023/09/14 10:28:15;;;;;;;2.30;0.80;;;;;;;17.60;100.00;102411.44;4926486;29;20460;-68
2023/09/14 10:30:46;;;;;;;3.23;1.03;;;;;;;17.09;100.00;102306.22;4912859;29;20538;-69
2023/09/14 10:33:13;;;;;;;2.50;1.10;;;;;;;16.87;100.00;102300.16;4911170;29;20456;-69
2023/09/14 10:35:43;;;;;;;4.00;1.03;;;;;;;17.67;100.00;102399.75;4911797;29;20448;-67
2023/09/14 10:38:09;;;;;;;3.10;1.07;;;;;;;17.15;100.00;102300.00;4912644;29;20516;-68
2023/09/14 10:40:38;;;;;;;6.20;1.40;;;;;;;17.02;100.00;102324.38;4912243;29;20540;-69
2023/09/14 10:43:05;;;;;;;5.17;1.03;;;;;;;17.15;100.00;102329.81;4911088;29;20489;-67
2023/09/14 10:45:35;;;;;;;7.03;1.03;;;;;;;17.59;100.00;102373.69;4924823;29;20484;-69
2023/09/14 10:48:04;;;;;;;2.60;0.90;;;;;;;17.44;100.00;102316.06;4912825;29;20428;-69
2023/09/14 10:50:31;;;;;;;2.30;0.83;;;;;;;17.36;100.00;102293.53;4912104;29;20452;-69
2023/09/14 10:52:56;;;;;;;3.83;0.83;;;;;;;17.22;100.00;102278.31;4924349;29;20900;-70
2023/09/14 10:55:27;;;;;;;2.67;0.70;;;;;;;17.50;100.00;102293.50;4911116;29;20539;-69
2023/09/14 10:57:53;;;;;;;2.33;0.80;;;;;;;17.39;100.00;102284.16;4924033;29;20232;-70
2023/09/14 11:00:45;;;;;;;3.47;0.97;;;;;;;18.18;100.00;102399.97;4912722;29;20433;-70
2023/09/14 11:03:12;;;;;;;4.40;1.17;;;;;;;18.40;100.00;102405.13;4908849;29;20224;-69
2023/09/14 11:05:48;;;;;;;3.27;0.90;;;;;;;17.80;100.00;102302.91;4911326;29;20472;-70
2023/09/14 11:08:14;;;;;;;3.07;1.00;;;;;;;17.54;100.00;102284.75;4911993;29;20490;-70
2023/09/14 11:10:54;;;;;;;3.40;1.10;;;;;;;18.23;100.00;102400.16;4911451;29;20444;-70
2023/09/14 11:13:19;;;;;;;3.63;0.80;;;;;;;18.77;100.00;102375.56;4911927;29;20444;-69
2023/09/14 11:15:46;;;;;;;4.43;1.27;;;;;;;18.24;100.00;102303.22;4911404;29;25176;-70